RJCO(METAR)
02/18 15:00
METAR RJCO 180600Z 32013G23KT 9999 FEW030 SCT050 01/M08 Q1020 RMK
1CU030 3CU050 A3014=
戻る
トップページへ戻る
IMOC Co,.Ltd.